Tropical Cyclones
[Index]
Main Index Home Page Stock Weather Photos Extreme Storms Discussion Storm News and Storm Chasing Reports Tropical Cyclones / Hurricanes / Typhoons Weather Data and Links Wild Fires / Bushfires Weather Observation Techniques Weather Picture Catalogue Tornado Pictures and Reports Stock Video Footage and DVDs for sale
Season 1986-1987 Tropical Cyclone JASON Track Map
Season 1986-1987 Summaries: [BoM-AU] [JTWC-AU] [JTWC-SIO] [JTWC-SPAC] [JTWC-SH]
<<- Previous TC | BoM 1986-1987 Season | Next TC ->>

click for intensity scale information  Lat/long Grid: Show Hide

 Date Labels: Show Hide

Bureau of Meteorology Tropical Cyclone Data

Name: JASON
Number: 698 / 198687_04

05 Feb 1987 18:00 UTC to 14 Feb 1987 00:00 UTC

    date/time    lat    long    hPa   cat  kts
1987-02-05 18   12.0   142.8   1002         14          
1987-02-06 00   12.0   142.3   1001         16          
1987-02-06 06   12.3   142.1    999         19          
1987-02-06 12   12.4   141.8    999         19          
1987-02-06 18   12.6   140.8    997         25          
1987-02-07 00   12.6   140.0    991    1    33          
1987-02-07 06   12.6   139.7    987    1    43          
1987-02-07 12   12.9   139.2    985    2    47          
1987-02-07 18   13.1   138.5    983    2    49          
1987-02-08 00   13.2   138.2    982    2                
1987-02-08 06   13.4   137.8    980    2                
1987-02-08 12   13.4   137.4    975    2                
1987-02-08 18   13.1   136.9    975    2                
1987-02-08 21   12.8   136.8    975    2                
1987-02-09 00   12.9   136.8    977    2                
1987-02-09 06   13.0   136.7    980    2                
1987-02-09 12   13.0   136.2    984    2                
1987-02-09 18   12.6   135.9    985    2                
1987-02-10 00   12.6   136.1    990    1                
1987-02-10 06   12.8   136.2    990    1                
1987-02-10 12   13.1   136.2    992    1                
1987-02-10 18   13.3   136.2    992    1                
1987-02-11 00   13.6   136.3    992    1                
1987-02-11 06   14.0   136.4    990    1                
1987-02-11 12   14.0   136.7    990    1                
1987-02-11 18   14.0   137.3    990    1                
1987-02-12 00   14.2   137.8    980    2    51          
1987-02-12 06   15.0   138.2    970    3    60          
1987-02-12 12   15.6   138.9    970    3    60          
1987-02-12 18   15.9   139.4    970    3    60          
1987-02-13 00   16.6   139.8    970    3    60          
1987-02-13 06   17.8   139.9    980    2    54          
1987-02-13 12   19.2   139.7    996         29          
1987-02-13 18   20.0   139.5    998         27          
1987-02-14 00   21.1   139.4   1001         21          
Winds are 10-min average.

Tropical cyclone tracks developed by Michael Bath using data from the Bureau of Meteorology and Google Maps.


[Australian Severe Weather index] [Copyright Notice] [Email Contacts] [Search This Site] [Privacy Policy]
Document: tropical_cyclone_jason.htm Updated: 30 May 2013